Time;durP1;ratioP1;P1;durP2;ratioP2;P2;SDS_P1;SDS_P2;PMS_P1;PMS_P2;Temp;Humidity;BMP_temperature;BMP_pressure;BME280_temperature;BME280_humidity;BME280_pressure;Samples;Min_cycle;Max_cycle;Signal;HPM_P1;HPM_P2
2023/12/21 00:00:34;;;;;;;1999.90;999.90;;;8.70;99.90;;;;;;4993308;28;20506;-71
2023/12/21 00:02:59;;;;;;;1999.90;999.90;;;8.50;99.90;;;;;;4993507;28;20992;-72
2023/12/21 00:05:25;;;;;;;1999.90;999.90;;;8.70;99.90;;;;;;4993364;28;20496;-72
2023/12/21 00:07:51;;;;;;;1999.90;999.90;;;;;;;;;;4993235;28;20601;-72
2023/12/21 00:10:17;;;;;;;1999.90;999.90;;;8.80;99.90;;;;;;4993097;28;20179;-72
2023/12/21 00:12:42;;;;;;;1999.90;999.90;;;8.60;99.90;;;;;;4993027;28;20458;-72
2023/12/21 00:15:08;;;;;;;1999.90;999.90;;;8.80;99.90;;;;;;4993151;28;20281;-72
2023/12/21 00:17:34;;;;;;;1999.90;999.90;;;8.80;99.90;;;;;;4993263;28;20175;-72
2023/12/21 00:20:00;;;;;;;1999.90;999.90;;;8.80;99.90;;;;;;4992478;28;20429;-72
2023/12/21 00:22:25;;;;;;;1999.90;999.90;;;8.80;99.90;;;;;;4992997;28;20246;-72
2023/12/21 00:24:51;;;;;;;1999.90;999.90;;;8.90;99.90;;;;;;4993075;28;20500;-72
2023/12/21 00:27:17;;;;;;;1999.90;999.90;;;8.90;99.90;;;;;;4993011;28;20174;-72
2023/12/21 00:29:42;;;;;;;1999.90;999.90;;;8.90;99.90;;;;;;4992691;28;20199;-72
2023/12/21 00:32:08;;;;;;;1999.90;999.90;;;8.90;99.90;;;;;;4992908;28;20174;-72
2023/12/21 00:34:33;;;;;;;1999.90;999.90;;;9.00;99.90;;;;;;4992754;28;20202;-72
2023/12/21 00:36:59;;;;;;;1999.90;999.90;;;9.20;99.90;;;;;;4992928;28;20173;-72
2023/12/21 00:39:24;;;;;;;1999.90;999.90;;;9.00;99.90;;;;;;4992715;28;20268;-72
2023/12/21 00:41:50;;;;;;;1999.90;999.90;;;9.00;99.90;;;;;;4992534;28;20658;-72
2023/12/21 00:44:16;;;;;;;1999.90;999.90;;;9.10;99.90;;;;;;4992663;28;20276;-72
2023/12/21 00:46:41;;;;;;;1999.90;999.90;;;9.10;99.90;;;;;;4992718;28;20178;-72
2023/12/21 00:49:07;;;;;;;1999.90;999.90;;;9.10;99.90;;;;;;4992622;28;20608;-72
2023/12/21 00:51:33;;;;;;;1999.90;999.90;;;9.10;99.90;;;;;;4992441;28;20178;-72
2023/12/21 00:53:59;;;;;;;1999.90;999.90;;;9.50;99.90;;;;;;4992493;28;20179;-72
2023/12/21 00:56:25;;;;;;;1999.90;999.90;;;9.10;99.90;;;;;;4992463;28;20235;-72
2023/12/21 00:58:50;;;;;;;1999.90;999.90;;;9.20;99.90;;;;;;4992461;28;20928;-72
2023/12/21 01:01:16;;;;;;;1999.90;999.90;;;9.10;99.90;;;;;;4992343;28;20171;-72
2023/12/21 01:03:41;;;;;;;1999.90;999.90;;;9.20;99.90;;;;;;4992452;28;20605;-71
2023/12/21 01:06:07;;;;;;;1999.90;999.90;;;9.10;99.90;;;;;;4992499;28;20225;-71
2023/12/21 01:08:33;;;;;;;1999.90;999.90;;;9.00;99.90;;;;;;4992349;28;21061;-71
2023/12/21 01:11:00;;;;;;;1999.90;999.90;;;9.10;99.90;;;;;;4992170;28;20540;-71
2023/12/21 01:13:25;;;;;;;1999.90;999.90;;;9.50;99.90;;;;;;4992338;28;20235;-71
2023/12/21 01:15:51;;;;;;;1999.90;999.90;;;9.00;99.90;;;;;;4992537;28;20473;-71
2023/12/21 01:18:17;;;;;;;1999.90;999.90;;;9.10;99.90;;;;;;4992428;28;20225;-71
2023/12/21 01:20:43;;;;;;;1999.90;999.90;;;8.90;99.90;;;;;;4992155;28;20439;-72
2023/12/21 01:23:08;;;;;;;1999.90;999.90;;;9.00;99.90;;;;;;4992331;28;20174;-72
2023/12/21 01:25:34;;;;;;;1999.90;999.90;;;9.10;99.90;;;;;;4992462;28;20183;-71
2023/12/21 01:27:59;;;;;;;1999.90;999.90;;;9.00;99.90;;;;;;4992374;28;20742;-70
2023/12/21 01:30:25;;;;;;;1999.90;999.90;;;9.00;99.90;;;;;;4992271;28;20563;-71
2023/12/21 01:32:51;;;;;;;1999.90;999.90;;;9.00;99.90;;;;;;4996524;28;20182;-71
2023/12/21 01:35:17;;;;;;;1999.90;999.90;;;9.00;99.90;;;;;;4996545;28;20209;-71
2023/12/21 01:37:42;;;;;;;1999.90;999.90;;;9.10;99.90;;;;;;4996518;28;20170;-71
2023/12/21 01:40:08;;;;;;;1999.90;999.90;;;9.00;99.90;;;;;;4996066;28;20833;-71
2023/12/21 01:42:34;;;;;;;1999.90;999.90;;;9.00;99.90;;;;;;4996127;28;20167;-70
2023/12/21 01:44:59;;;;;;;1999.90;999.90;;;9.00;99.90;;;;;;4996521;28;20411;-71
2023/12/21 01:47:25;;;;;;;1999.90;999.90;;;9.00;99.90;;;;;;4996325;28;20175;-71
2023/12/21 01:49:51;;;;;;;1999.90;999.90;;;9.10;99.90;;;;;;4995960;28;20198;-71
2023/12/21 01:52:17;;;;;;;1999.90;999.90;;;9.00;99.90;;;;;;4996768;28;20185;-71
2023/12/21 01:54:42;;;;;;;1999.90;999.90;;;9.00;99.90;;;;;;4996849;28;20513;-71
2023/12/21 01:57:08;;;;;;;1999.90;999.90;;;9.00;99.90;;;;;;4996423;28;20174;-71
2023/12/21 01:59:34;;;;;;;1999.90;999.90;;;9.30;99.90;;;;;;4996012;28;20201;-71
2023/12/21 02:02:00;;;;;;;1999.90;999.90;;;9.30;99.90;;;;;;4996847;28;20175;-71
2023/12/21 02:04:25;;;;;;;1999.90;999.90;;;9.00;99.90;;;;;;4996403;28;20421;-72
2023/12/21 02:06:51;;;;;;;1999.90;999.90;;;9.10;99.90;;;;;;4996399;28;20181;-71
2023/12/21 02:09:16;;;;;;;1999.90;999.90;;;9.00;99.90;;;;;;4996444;28;20256;-71
2023/12/21 02:11:42;;;;;;;1999.90;999.90;;;8.90;99.90;;;;;;4996371;28;20648;-71
2023/12/21 02:14:08;;;;;;;1999.90;999.90;;;9.00;99.90;;;;;;4996457;28;20202;-71
2023/12/21 02:16:49;;;;;;;1999.90;999.90;;;9.10;99.90;;;;;;4996687;28;20178;-71
2023/12/21 02:19:16;;;;;;;1999.90;999.90;;;9.20;99.90;;;;;;4996466;28;20658;-71
2023/12/21 02:21:42;;;;;;;1999.90;999.90;;;8.90;99.90;;;;;;4995983;28;20431;-72
2023/12/21 02:24:16;;;;;;;1999.90;999.90;;;8.80;99.90;;;;;;4996061;28;20471;-71
2023/12/21 02:26:42;;;;;;;1999.90;999.90;;;9.20;99.90;;;;;;4995850;28;20429;-72
2023/12/21 02:29:08;;;;;;;1999.90;999.90;;;9.00;99.90;;;;;;4995946;28;20456;-72
2023/12/21 02:31:35;;;;;;;1999.90;999.90;;;9.10;99.90;;;;;;4996065;28;20448;-72
2023/12/21 02:34:00;;;;;;;1999.90;999.90;;;9.10;99.90;;;;;;4995978;28;20410;-71
2023/12/21 02:36:26;;;;;;;1999.90;999.90;;;9.40;99.90;;;;;;4996149;28;20417;-72
2023/12/21 02:38:52;;;;;;;1999.90;999.90;;;9.40;99.90;;;;;;4996482;28;20222;-71
2023/12/21 02:41:17;;;;;;;1999.90;999.90;;;9.30;99.90;;;;;;4995901;28;20180;-71
2023/12/21 02:43:43;;;;;;;1999.90;999.90;;;9.20;99.90;;;;;;4995072;28;20242;-70
2023/12/21 02:46:08;;;;;;;1999.90;999.90;;;9.00;99.90;;;;;;4995462;28;20179;-71
2023/12/21 02:48:34;;;;;;;1999.90;999.90;;;9.10;99.90;;;;;;4995563;28;20560;-71
2023/12/21 02:51:00;;;;;;;1999.90;999.90;;;9.10;99.90;;;;;;4995452;28;20182;-71
2023/12/21 02:53:26;;;;;;;1999.90;999.90;;;9.10;99.90;;;;;;4995438;28;20211;-71
2023/12/21 02:55:52;;;;;;;1999.90;999.90;;;9.10;99.90;;;;;;4995385;28;20493;-71
2023/12/21 02:58:17;;;;;;;1999.90;999.90;;;9.10;99.90;;;;;;4994952;28;20183;-71
2023/12/21 03:00:43;;;;;;;1999.90;999.90;;;9.10;99.90;;;;;;4995013;28;20301;-72
2023/12/21 03:03:08;;;;;;;1999.90;999.90;;;9.30;99.90;;;;;;4994959;28;20194;-71
2023/12/21 03:05:34;;;;;;;1999.90;999.90;;;9.10;99.90;;;;;;4994841;28;20169;-71
2023/12/21 03:07:59;;;;;;;1999.90;999.90;;;9.10;99.90;;;;;;4994640;28;20187;-71
2023/12/21 03:10:25;;;;;;;1999.90;999.90;;;9.10;99.90;;;;;;4994742;28;20175;-71
2023/12/21 03:12:51;;;;;;;1999.90;999.90;;;9.30;99.90;;;;;;4994687;28;20176;-71
2023/12/21 03:15:16;;;;;;;1999.90;999.90;;;9.00;99.90;;;;;;4994510;28;20207;-70
2023/12/21 03:17:42;;;;;;;1999.90;999.90;;;9.10;99.90;;;;;;4994616;28;20172;-71
2023/12/21 03:20:08;;;;;;;1999.90;999.90;;;9.20;99.90;;;;;;4994624;28;20666;-71
2023/12/21 03:22:34;;;;;;;1999.90;999.90;;;9.10;99.90;;;;;;4994303;28;20166;-71
2023/12/21 03:25:00;;;;;;;1999.90;999.90;;;9.00;99.90;;;;;;4994312;28;20413;-71
2023/12/21 03:27:25;;;;;;;1999.90;999.90;;;9.00;99.90;;;;;;4994344;28;20429;-71
2023/12/21 03:29:51;;;;;;;1999.90;999.90;;;9.00;99.90;;;;;;4994249;28;20204;-72
2023/12/21 03:32:17;;;;;;;1999.90;999.90;;;9.00;99.90;;;;;;4994516;28;20699;-71
2023/12/21 03:34:43;;;;;;;1999.90;999.90;;;8.90;99.90;;;;;;4994414;28;20485;-71
2023/12/21 03:37:08;;;;;;;1999.90;999.90;;;9.20;99.90;;;;;;4994950;28;20174;-72
2023/12/21 03:39:34;;;;;;;1999.90;999.90;;;8.90;99.90;;;;;;4994486;28;20227;-71
2023/12/21 03:42:01;;;;;;;1999.90;999.90;;;9.00;99.90;;;;;;4995062;28;20253;-71
2023/12/21 03:44:27;;;;;;;1999.90;999.90;;;9.10;99.90;;;;;;4994705;28;20202;-71
2023/12/21 03:46:53;;;;;;;1999.90;999.90;;;9.20;99.90;;;;;;4994716;28;20802;-72
2023/12/21 03:49:18;;;;;;;1999.90;999.90;;;8.90;99.90;;;;;;4994608;28;20564;-71
2023/12/21 03:51:44;;;;;;;1999.90;999.90;;;9.10;99.90;;;;;;4994360;28;20174;-71
2023/12/21 03:54:10;;;;;;;1999.90;999.90;;;9.10;99.90;;;;;;4993150;28;20672;-71
2023/12/21 03:56:38;;;;;;;1999.90;999.90;;;9.30;99.90;;;;;;4994197;28;20159;-71
2023/12/21 03:59:04;;;;;;;1999.90;999.90;;;9.00;99.90;;;;;;4993852;28;20181;-71
2023/12/21 04:01:30;;;;;;;1999.90;999.90;;;9.00;99.90;;;;;;4993611;28;20493;-71
2023/12/21 04:03:56;;;;;;;1999.90;999.90;;;9.10;99.90;;;;;;4993605;28;20442;-71
2023/12/21 04:06:22;;;;;;;1999.90;999.90;;;9.00;99.90;;;;;;4993831;28;20174;-72
2023/12/21 04:08:47;;;;;;;1999.90;999.90;;;9.10;99.90;;;;;;4993369;28;20202;-71
2023/12/21 04:11:13;;;;;;;1999.90;999.90;;;9.10;99.90;;;;;;4993501;28;20406;-71
2023/12/21 04:13:39;;;;;;;1999.90;999.90;;;9.30;99.90;;;;;;4993692;28;20178;-71
2023/12/21 04:16:05;;;;;;;1999.90;999.90;;;9.20;99.90;;;;;;4993396;28;20826;-71
2023/12/21 04:18:32;;;;;;;1999.90;999.90;;;9.10;99.90;;;;;;4993469;28;20194;-71
2023/12/21 04:20:57;;;;;;;1999.90;999.90;;;8.90;99.90;;;;;;4993257;28;20437;-71
2023/12/21 04:23:24;;;;;;;1999.90;999.90;;;9.20;99.90;;;;;;4993705;28;20434;-71
2023/12/21 04:25:50;;;;;;;1999.90;999.90;;;9.10;99.90;;;;;;4993578;28;20213;-71
2023/12/21 04:28:16;;;;;;;1999.90;999.90;;;9.10;99.90;;;;;;4993528;28;20422;-71
2023/12/21 04:30:41;;;;;;;1999.90;999.90;;;9.20;99.90;;;;;;4993328;28;20413;-71
2023/12/21 04:33:10;;;;;;;1999.90;999.90;;;9.10;99.90;;;;;;4992970;28;20229;-71
2023/12/21 04:35:36;;;;;;;1999.90;999.90;;;9.00;99.90;;;;;;4992798;28;20197;-72
2023/12/21 04:38:01;;;;;;;1999.90;999.90;;;9.00;99.90;;;;;;4992760;28;20406;-72
2023/12/21 04:40:27;;;;;;;1999.90;999.90;;;9.20;99.90;;;;;;4992650;28;20173;-72
2023/12/21 04:42:55;;;;;;;1999.90;999.90;;;9.10;99.90;;;;;;4992703;28;20171;-71
2023/12/21 04:45:22;;;;;;;1999.90;999.90;;;9.20;99.90;;;;;;4992709;28;20174;-72
2023/12/21 04:47:47;;;;;;;1999.90;999.90;;;9.20;99.90;;;;;;4992627;28;20410;-72
2023/12/21 04:50:13;;;;;;;1999.90;999.90;;;9.10;99.90;;;;;;4992416;28;20937;-72
2023/12/21 04:52:38;;;;;;;1999.90;999.90;;;9.10;99.90;;;;;;4992549;28;20217;-72
2023/12/21 04:55:05;;;;;;;1999.90;999.90;;;9.30;99.90;;;;;;4992612;28;20253;-73
2023/12/21 04:57:30;;;;;;;1999.90;999.90;;;9.20;99.90;;;;;;4992720;28;20180;-71
2023/12/21 04:59:56;;;;;;;1999.90;999.90;;;9.20;99.90;;;;;;4992263;28;20520;-71
2023/12/21 05:02:22;;;;;;;1999.90;999.90;;;9.20;99.90;;;;;;4992483;28;20168;-71
2023/12/21 05:04:47;;;;;;;1999.90;999.90;;;9.20;99.90;;;;;;4992551;28;20184;-71
2023/12/21 05:07:13;;;;;;;1999.90;999.90;;;9.30;99.90;;;;;;4992545;28;20852;-72
2023/12/21 05:09:38;;;;;;;1999.90;999.90;;;9.20;99.90;;;;;;4992234;28;20191;-71
2023/12/21 05:12:04;;;;;;;1999.90;999.90;;;9.10;99.90;;;;;;4992494;28;20171;-72
2023/12/21 05:14:30;;;;;;;1999.90;999.90;;;9.20;99.90;;;;;;4992338;28;20203;-72
2023/12/21 05:16:56;;;;;;;1999.90;999.90;;;9.10;99.90;;;;;;4992343;28;20405;-72
2023/12/21 05:19:21;;;;;;;1999.90;999.90;;;9.20;99.90;;;;;;4992531;28;20233;-72
2023/12/21 05:21:47;;;;;;;1999.90;999.90;;;9.20;99.90;;;;;;4992318;28;20697;-72
2023/12/21 05:24:13;;;;;;;1999.90;999.90;;;9.20;99.90;;;;;;4992406;28;20677;-72
2023/12/21 05:26:38;;;;;;;1999.90;999.90;;;9.20;99.90;;;;;;4992510;28;20197;-72
2023/12/21 05:29:04;;;;;;;1999.90;999.90;;;9.20;99.90;;;;;;4992251;28;20194;-72
2023/12/21 05:31:29;;;;;;;1999.90;999.90;;;9.40;99.90;;;;;;4992071;28;20677;-72
2023/12/21 05:33:56;;;;;;;1999.90;999.90;;;9.40;99.90;;;;;;4992393;28;20179;-72
2023/12/21 05:36:25;;;;;;;1999.90;999.90;;;9.40;99.90;;;;;;4992216;28;20171;-72
2023/12/21 05:38:51;;;;;;;1999.90;999.90;;;9.20;99.90;;;;;;4992174;28;20437;-72
2023/12/21 05:41:17;;;;;;;1999.90;999.90;;;9.20;99.90;;;;;;4992038;28;20402;-72
2023/12/21 05:43:43;;;;;;;1999.90;999.90;;;9.20;99.90;;;;;;4992122;28;20417;-72
2023/12/21 05:46:09;;;;;;;1999.90;999.90;;;9.40;99.90;;;;;;4992148;28;20409;-72
2023/12/21 05:48:35;;;;;;;1999.90;999.90;;;9.30;99.90;;;;;;4992076;28;20435;-72
2023/12/21 05:51:00;;;;;;;1999.90;999.90;;;9.30;99.90;;;;;;4991857;28;20409;-72
2023/12/21 05:53:30;;;;;;;1999.90;999.90;;;9.30;99.90;;;;;;4992064;28;20202;-72
2023/12/21 05:55:56;;;;;;;1999.90;999.90;;;9.30;99.90;;;;;;4991993;28;20275;-72
2023/12/21 05:58:21;;;;;;;1999.90;999.90;;;9.40;99.90;;;;;;4991943;28;20481;-72
2023/12/21 06:00:47;;;;;;;1999.90;999.90;;;9.40;99.90;;;;;;4991818;28;20786;-72
2023/12/21 06:03:13;;;;;;;1999.90;999.90;;;9.40;99.90;;;;;;4992075;28;20186;-72
2023/12/21 06:05:38;;;;;;;1999.90;999.90;;;9.70;99.90;;;;;;4991956;28;20179;-72
2023/12/21 06:08:04;;;;;;;1999.90;999.90;;;9.10;99.90;;;;;;4991922;28;20238;-72
2023/12/21 06:10:29;;;;;;;1999.90;999.90;;;9.50;99.90;;;;;;4991759;28;20176;-72
2023/12/21 06:12:55;;;;;;;1999.90;999.90;;;9.50;99.90;;;;;;4991850;28;20174;-72
2023/12/21 06:15:21;;;;;;;1999.90;999.90;;;9.50;99.90;;;;;;4991917;28;20199;-72
2023/12/21 06:17:47;;;;;;;1999.90;999.90;;;9.60;99.90;;;;;;4993496;28;20172;-72
2023/12/21 06:20:12;;;;;;;1999.90;999.90;;;9.60;99.90;;;;;;4995046;28;20768;-72
2023/12/21 06:22:38;;;;;;;1999.90;999.90;;;9.70;99.90;;;;;;4995283;28;20174;-72
2023/12/21 06:25:04;;;;;;;1999.90;999.90;;;9.80;99.90;;;;;;4995253;28;20176;-72
2023/12/21 06:27:30;;;;;;;1999.90;999.90;;;9.70;99.90;;;;;;4995250;28;20171;-72
2023/12/21 06:29:55;;;;;;;1999.90;999.90;;;9.80;99.90;;;;;;4994874;28;20473;-72
2023/12/21 06:32:22;;;;;;;1999.90;999.90;;;9.80;99.90;;;;;;4995120;28;20228;-72
2023/12/21 06:34:48;;;;;;;1999.90;999.90;;;9.70;99.90;;;;;;4994853;28;20710;-72
2023/12/21 06:37:13;;;;;;;1999.90;999.90;;;9.70;99.90;;;;;;4995059;28;20423;-72
2023/12/21 06:39:39;;;;;;;1999.90;999.90;;;9.80;99.90;;;;;;4994834;28;20187;-72
2023/12/21 06:42:05;;;;;;;1999.90;999.90;;;9.80;99.90;;;;;;4994947;28;20253;-72
2023/12/21 06:44:31;;;;;;;1999.90;999.90;;;9.70;99.90;;;;;;4994921;28;20619;-72
2023/12/21 06:46:57;;;;;;;1999.90;999.90;;;9.60;99.90;;;;;;4995046;28;20493;-72
2023/12/21 06:49:22;;;;;;;1999.90;999.90;;;9.70;99.90;;;;;;4994729;28;20659;-72
2023/12/21 06:51:48;;;;;;;1999.90;999.90;;;9.70;99.90;;;;;;4994641;28;20179;-72
2023/12/21 06:54:14;;;;;;;1999.90;999.90;;;9.70;99.90;;;;;;4994638;28;20168;-72
2023/12/21 06:56:39;;;;;;;1999.90;999.90;;;9.70;99.90;;;;;;4994696;28;20550;-72
2023/12/21 06:59:05;;;;;;;1999.90;999.90;;;9.70;99.90;;;;;;4994555;28;20421;-72
2023/12/21 07:01:31;;;;;;;1999.90;999.90;;;9.60;99.90;;;;;;4994652;28;20180;-72
2023/12/21 07:03:57;;;;;;;1999.90;999.90;;;9.70;99.90;;;;;;4994444;28;20571;-72
2023/12/21 07:06:25;;;;;;;1999.90;999.90;;;9.70;99.90;;;;;;4994870;28;20164;-71
2023/12/21 07:08:51;;;;;;;1999.90;999.90;;;9.70;99.90;;;;;;4994904;28;20469;-71
2023/12/21 07:11:17;;;;;;;1999.90;999.90;;;9.80;99.90;;;;;;4994372;28;20420;-71
2023/12/21 07:13:43;;;;;;;1999.90;999.90;;;9.70;99.90;;;;;;4994274;28;20419;-72
2023/12/21 07:16:09;;;;;;;1999.90;999.90;;;9.70;99.90;;;;;;4994281;28;20469;-71
2023/12/21 07:18:35;;;;;;;1999.90;999.90;;;9.70;99.90;;;;;;4994586;28;20432;-72
2023/12/21 07:21:01;;;;;;;1999.90;999.90;;;9.80;99.90;;;;;;4994322;28;20407;-71
2023/12/21 07:23:27;;;;;;;1999.90;999.90;;;9.80;99.90;;;;;;4994256;28;20485;-71
2023/12/21 07:25:53;;;;;;;1999.90;999.90;;;9.70;99.90;;;;;;4994104;28;20510;-71
2023/12/21 07:28:18;;;;;;;1999.90;999.90;;;9.90;99.90;;;;;;4993341;28;20196;-71
2023/12/21 07:30:44;;;;;;;1999.90;999.90;;;9.90;99.90;;;;;;4993445;28;20179;-71
2023/12/21 07:33:12;;;;;;;1999.90;999.90;;;9.90;99.90;;;;;;4993938;28;20259;-71
2023/12/21 07:35:38;;;;;;;1999.90;999.90;;;9.80;99.90;;;;;;4993948;28;20212;-71
2023/12/21 07:38:05;;;;;;;1999.90;999.90;;;10.00;99.90;;;;;;4993843;28;20408;-71
2023/12/21 07:40:30;;;;;;;1999.90;999.90;;;9.80;99.90;;;;;;4993550;28;20523;-72
2023/12/21 07:42:56;;;;;;;1999.90;999.90;;;9.90;99.90;;;;;;4994029;28;20494;-72
2023/12/21 07:45:21;;;;;;;1999.90;999.90;;;10.00;99.90;;;;;;4993723;28;20172;-71
2023/12/21 07:47:48;;;;;;;1999.90;999.90;;;9.90;99.90;;;;;;4993702;28;20631;-71
2023/12/21 07:50:14;;;;;;;1999.90;999.90;;;10.00;99.90;;;;;;4993416;28;20199;-71
2023/12/21 07:52:39;;;;;;;1999.90;999.90;;;10.00;99.90;;;;;;4993765;28;20418;-71
2023/12/21 07:55:07;;;;;;;1999.90;999.90;;;10.00;99.90;;;;;;4993479;28;20557;-71
2023/12/21 07:57:33;;;;;;;1999.90;999.90;;;10.20;99.90;;;;;;4993573;28;20574;-72
2023/12/21 07:59:58;;;;;;;1999.90;999.90;;;10.30;99.90;;;;;;4993221;28;20455;-71
2023/12/21 08:02:24;;;;;;;1999.90;999.90;;;10.20;99.90;;;;;;4993449;28;20913;-71
2023/12/21 08:04:50;;;;;;;1999.90;999.90;;;10.30;99.90;;;;;;4993365;28;20176;-71
2023/12/21 08:07:16;;;;;;;1999.90;999.90;;;10.20;99.90;;;;;;4993315;28;20239;-71
2023/12/21 08:09:42;;;;;;;1999.90;999.90;;;10.30;99.90;;;;;;4992952;28;20528;-71
2023/12/21 08:12:08;;;;;;;1999.90;999.90;;;10.20;99.90;;;;;;4993510;28;20910;-71
2023/12/21 08:14:37;;;;;;;1999.90;999.90;;;10.40;99.90;;;;;;4993175;28;20464;-72
2023/12/21 08:17:07;;;;;;;1999.90;999.90;;;10.30;99.90;;;;;;4993113;28;20408;-71
2023/12/21 08:19:33;;;;;;;1999.90;999.90;;;10.40;99.90;;;;;;4992879;28;20426;-71
2023/12/21 08:21:59;;;;;;;1999.90;999.90;;;10.40;99.90;;;;;;4993080;28;20417;-71
2023/12/21 08:24:24;;;;;;;1999.90;999.90;;;10.50;99.90;;;;;;4993022;28;20485;-71
2023/12/21 08:26:50;;;;;;;1999.90;999.90;;;10.60;99.90;;;;;;4993081;28;20187;-71
2023/12/21 08:29:15;;;;;;;1999.90;999.90;;;10.60;99.90;;;;;;4993057;28;20200;-71
2023/12/21 08:31:41;;;;;;;1999.90;999.90;;;10.60;99.90;;;;;;4992721;28;20204;-71
2023/12/21 08:34:07;;;;;;;1999.90;999.90;;;10.70;99.90;;;;;;4992896;28;20178;-71
2023/12/21 08:36:33;;;;;;;1999.90;999.90;;;10.70;99.90;;;;;;4992967;28;20753;-71
2023/12/21 08:39:01;;;;;;;1999.90;999.90;;;10.70;99.90;;;;;;4992727;28;20192;-71
2023/12/21 08:41:26;;;;;;;1999.90;999.90;;;10.60;99.90;;;;;;4992470;28;20495;-71
2023/12/21 08:43:52;;;;;;;1999.90;999.90;;;10.50;99.90;;;;;;4992860;28;20487;-71
2023/12/21 08:46:19;;;;;;;1999.90;999.90;;;10.40;99.90;;;;;;4992821;28;20718;-70
2023/12/21 08:48:44;;;;;;;1999.90;999.90;;;10.30;99.90;;;;;;4992680;28;20192;-71
2023/12/21 08:51:10;;;;;;;1999.90;999.90;;;10.20;99.90;;;;;;4992405;28;20766;-71
2023/12/21 08:53:35;;;;;;;1999.90;999.90;;;10.10;99.90;;;;;;4992337;28;20175;-71
2023/12/21 08:56:03;;;;;;;1999.90;999.90;;;10.10;99.90;;;;;;4982198;28;20254;-72
2023/12/21 08:58:28;;;;;;;1999.90;999.90;;;10.00;99.90;;;;;;4981777;28;20726;-73
2023/12/21 09:00:55;;;;;;;1999.90;999.90;;;10.00;99.90;;;;;;4972594;28;20502;-74
2023/12/21 09:03:21;;;;;;;1999.90;999.90;;;10.00;99.90;;;;;;4973284;28;20179;-72
2023/12/21 09:05:47;;;;;;;1999.90;999.90;;;10.20;99.90;;;;;;4986685;28;20435;-73
2023/12/21 09:08:12;;;;;;;1999.90;999.90;;;9.90;99.90;;;;;;4990073;28;20216;-72
2023/12/21 09:10:38;;;;;;;1999.90;999.90;;;9.80;99.90;;;;;;4980023;28;20207;-71
2023/12/21 09:13:03;;;;;;;1999.90;999.90;;;9.80;99.90;;;;;;4983872;28;20196;-71
2023/12/21 09:15:29;;;;;;;1999.90;999.90;;;9.90;99.90;;;;;;4981239;28;20205;-72
2023/12/21 09:17:56;;;;;;;1999.90;999.90;;;9.50;99.90;;;;;;4986581;28;20197;-72
2023/12/21 09:20:21;;;;;;;1999.90;999.90;;;9.80;99.90;;;;;;4990964;28;20481;-70
2023/12/21 09:22:47;;;;;;;1999.90;999.90;;;9.70;99.90;;;;;;4989212;28;20606;-71
2023/12/21 09:25:13;;;;;;;1999.90;999.90;;;9.70;99.90;;;;;;4991353;28;20184;-71
2023/12/21 09:27:39;;;;;;;1999.90;999.90;;;9.70;99.90;;;;;;4983886;28;20422;-71
2023/12/21 09:30:05;;;;;;;1999.90;999.90;;;9.60;99.90;;;;;;4990827;28;20444;-72
2023/12/21 09:32:31;;;;;;;1999.90;999.90;;;9.70;99.90;;;;;;4988978;28;20245;-72
2023/12/21 09:34:57;;;;;;;1999.90;999.90;;;9.90;99.90;;;;;;4985544;28;20470;-72
2023/12/21 09:37:23;;;;;;;1999.90;999.90;;;9.70;99.90;;;;;;4983537;28;20505;-71
2023/12/21 09:39:49;;;;;;;1999.90;999.90;;;9.70;99.90;;;;;;4991219;28;20518;-71
2023/12/21 09:42:15;;;;;;;1999.90;999.90;;;9.80;99.90;;;;;;4990417;28;20299;-71
2023/12/21 09:44:45;;;;;;;1999.90;999.90;;;9.70;99.90;;;;;;4991508;28;20469;-72
2023/12/21 09:47:13;;;;;;;1999.90;999.90;;;9.60;99.90;;;;;;4991093;28;20415;-73
2023/12/21 09:49:41;;;;;;;1999.90;999.90;;;9.60;99.90;;;;;;4991339;28;20529;-74
2023/12/21 09:52:08;;;;;;;1999.90;999.90;;;9.70;99.90;;;;;;4990588;28;20430;-73
2023/12/21 09:54:39;;;;;;;1999.90;999.90;;;10.00;99.90;;;;;;4994835;28;20624;-74
2023/12/21 09:57:05;;;;;;;1999.90;999.90;;;9.80;99.90;;;;;;4995221;28;20426;-75
2023/12/21 09:59:34;;;;;;;1999.90;999.90;;;9.60;99.90;;;;;;4994964;28;20950;-73
2023/12/21 10:02:00;;;;;;;1999.90;999.90;;;9.80;99.90;;;;;;4995201;28;20406;-74
2023/12/21 10:04:26;;;;;;;1999.90;999.90;;;10.10;99.90;;;;;;4993964;28;20417;-73
2023/12/21 10:06:52;;;;;;;1999.90;999.90;;;9.80;99.90;;;;;;4991219;28;20431;-73
2023/12/21 10:09:18;;;;;;;1999.90;999.90;;;9.80;99.90;;;;;;4993829;28;20554;-72
2023/12/21 10:11:44;;;;;;;1999.90;999.90;;;9.90;99.90;;;;;;4994657;28;20411;-73
2023/12/21 10:14:19;;;;;;;1999.90;999.90;;;9.80;99.90;;;;;;4986773;28;20195;-72
2023/12/21 10:16:44;;;;;;;1999.90;999.90;;;9.90;99.90;;;;;;4986044;28;20431;-71
2023/12/21 10:19:11;;;;;;;1999.90;999.90;;;9.80;99.90;;;;;;4982479;28;20558;-73
2023/12/21 10:21:41;;;;;;;1999.90;999.90;;;9.80;99.90;;;;;;4988028;28;20209;-74
2023/12/21 10:24:07;;;;;;;1999.90;999.90;;;9.80;99.90;;;;;;4992694;28;20428;-75
2023/12/21 10:26:42;;;;;;;1999.90;999.90;;;9.80;99.90;;;;;;4990631;28;21071;-75
2023/12/21 10:29:07;;;;;;;1999.90;999.90;;;10.10;99.90;;;;;;4994918;28;20435;-74
2023/12/21 10:31:33;;;;;;;1999.90;999.90;;;9.90;99.90;;;;;;4991683;28;21260;-74
2023/12/21 10:33:59;;;;;;;1999.90;999.90;;;10.10;99.90;;;;;;4994595;28;20249;-74
2023/12/21 10:36:26;;;;;;;1999.90;999.90;;;9.90;99.90;;;;;;4994109;28;20215;-73
2023/12/21 10:38:52;;;;;;;1999.90;999.90;;;9.90;99.90;;;;;;4993893;28;20639;-74
2023/12/21 10:41:18;;;;;;;1999.90;999.90;;;9.90;99.90;;;;;;4989311;28;20434;-75
2023/12/21 10:43:45;;;;;;;1999.90;999.90;;;10.00;99.90;;;;;;4992973;28;20450;-76
2023/12/21 10:46:10;;;;;;;1999.90;999.90;;;9.80;99.90;;;;;;4993681;28;20455;-73
2023/12/21 10:48:38;;;;;;;1999.90;999.90;;;10.00;99.90;;;;;;4992906;28;20442;-74
2023/12/21 10:51:04;;;;;;;1999.90;999.90;;;10.20;99.90;;;;;;4991833;28;20207;-73
2023/12/21 10:53:30;;;;;;;1999.90;999.90;;;10.00;99.90;;;;;;4993821;28;20469;-74
2023/12/21 10:55:57;;;;;;;1999.90;999.90;;;10.10;99.90;;;;;;4994191;28;20453;-75
2023/12/21 10:58:25;;;;;;;1999.90;999.90;;;10.00;99.90;;;;;;4994262;28;20785;-73
2023/12/21 11:00:53;;;;;;;1999.90;999.90;;;10.20;99.90;;;;;;4983806;28;20412;-76
2023/12/21 11:03:19;;;;;;;1999.90;999.90;;;10.00;99.90;;;;;;4989628;28;20915;-74
2023/12/21 11:05:46;;;;;;;1999.90;999.90;;;10.00;99.90;;;;;;4983646;28;20456;-74
2023/12/21 11:08:11;;;;;;;1999.90;999.90;;;10.40;99.90;;;;;;4992136;28;20444;-74
2023/12/21 11:10:37;;;;;;;1999.90;999.90;;;10.20;99.90;;;;;;4993494;28;20408;-74
2023/12/21 11:13:03;;;;;;;1999.90;999.90;;;10.10;99.90;;;;;;4993776;28;20408;-74
2023/12/21 11:15:30;;;;;;;1999.90;999.90;;;10.20;99.90;;;;;;4993322;28;20457;-75
2023/12/21 11:18:05;;;;;;;1999.90;999.90;;;10.10;99.90;;;;;;4994065;28;20797;-75
2023/12/21 11:20:37;;;;;;;1999.90;999.90;;;10.10;99.90;;;;;;4993957;28;20918;-75
2023/12/21 11:23:06;;;;;;;1999.90;999.90;;;10.10;99.90;;;;;;4993665;28;20750;-75
2023/12/21 11:25:33;;;;;;;1999.90;999.90;;;10.20;99.90;;;;;;4993852;28;20411;-75
2023/12/21 11:28:04;;;;;;;1999.90;999.90;;;10.30;99.90;;;;;;4993826;28;20403;-75
2023/12/21 11:30:32;;;;;;;1999.90;999.90;;;;;;;;;;4992407;28;20416;-76
2023/12/21 11:33:09;;;;;;;1999.90;999.90;;;10.20;99.90;;;;;;4991533;28;20435;-76
2023/12/21 11:35:38;;;;;;;1999.90;999.90;;;11.30;99.90;;;;;;4993747;28;20530;-75
2023/12/21 11:38:05;;;;;;;1999.90;999.90;;;10.10;99.90;;;;;;4991406;28;20433;-76
2023/12/21 11:40:32;;;;;;;1999.90;999.90;;;10.30;99.90;;;;;;4992038;28;20421;-75
2023/12/21 11:42:59;;;;;;;1999.90;999.90;;;10.40;99.90;;;;;;4993216;28;20414;-76
2023/12/21 11:45:30;;;;;;;1999.90;999.90;;;10.40;99.90;;;;;;4992975;28;20905;-75
2023/12/21 11:48:01;;;;;;;1999.90;999.90;;;10.40;99.90;;;;;;4993406;28;20405;-77
2023/12/21 11:50:30;;;;;;;1999.90;999.90;;;10.50;99.90;;;;;;4993178;28;20481;-78
2023/12/21 11:53:10;;;;;;;1999.90;999.90;;;10.50;99.90;;;;;;4992795;28;20415;-77
2023/12/21 11:55:38;;;;;;;1999.90;999.90;;;10.60;99.90;;;;;;4993113;28;20467;-77
2023/12/21 11:58:16;;;;;;;1999.90;999.90;;;10.80;99.90;;;;;;4993450;28;20908;-77
2023/12/21 12:00:50;;;;;;;1999.90;999.90;;;10.70;99.90;;;;;;4992630;28;20407;-77